createdAt,value
2022-11-01T00:00:25.892Z,12.31
2022-11-01T00:01:22.979Z,12.41
2022-11-01T00:02:19.756Z,12.49
2022-11-01T00:03:16.545Z,11.84
2022-11-01T00:04:13.241Z,11.90
2022-11-01T00:05:10.523Z,11.61
2022-11-01T00:06:07.286Z,12.09
2022-11-01T00:07:04.024Z,11.37
2022-11-01T00:08:00.972Z,12.36
2022-11-01T00:08:57.929Z,11.38
2022-11-01T00:09:54.709Z,11.80
2022-11-01T00:10:51.404Z,12.29
2022-11-01T00:11:48.521Z,12.22
2022-11-01T00:12:45.971Z,12.31
2022-11-01T00:13:46.084Z,12.24
2022-11-01T00:14:42.784Z,11.10
2022-11-01T00:15:39.506Z,12.44
2022-11-01T00:16:36.449Z,12.34
2022-11-01T00:17:33.289Z,11.91
2022-11-01T00:18:30.054Z,12.30
2022-11-01T00:19:26.767Z,11.71
2022-11-01T00:20:23.488Z,12.24
2022-11-01T00:21:20.373Z,12.30
2022-11-01T00:22:17.066Z,12.44
2022-11-01T00:23:13.794Z,12.37
2022-11-01T00:24:10.626Z,11.71
2022-11-01T00:25:07.629Z,12.30
2022-11-01T00:26:04.561Z,12.42
2022-11-01T00:27:01.497Z,12.50
2022-11-01T00:27:58.555Z,12.48
2022-11-01T00:28:55.852Z,12.37
2022-11-01T00:29:52.538Z,12.47
2022-11-01T00:30:52.847Z,12.50
2022-11-01T00:31:50.048Z,11.97
2022-11-01T00:32:46.718Z,11.15
2022-11-01T00:33:43.702Z,12.31
2022-11-01T00:34:40.400Z,12.09
2022-11-01T00:35:37.186Z,12.22
2022-11-01T00:36:36.083Z,12.24
2022-11-01T00:37:32.807Z,12.29
2022-11-01T00:38:29.628Z,12.38
2022-11-01T00:39:30.639Z,12.06
2022-11-01T00:40:28.378Z,12.22
2022-11-01T00:41:26.609Z,11.93
2022-11-01T00:42:23.430Z,12.18
2022-11-01T00:43:20.248Z,12.08
2022-11-01T00:44:16.955Z,12.10
2022-11-01T00:45:13.907Z,11.99
2022-11-01T00:46:10.952Z,11.45
2022-11-01T00:47:08.078Z,10.73
2022-11-01T00:48:05.696Z,11.78
2022-11-01T00:49:02.480Z,11.27
2022-11-01T00:49:59.185Z,11.81
2022-11-01T00:50:55.976Z,11.73
2022-11-01T00:51:52.663Z,11.78
2022-11-01T00:52:49.489Z,11.56
2022-11-01T00:53:46.189Z,11.91
2022-11-01T00:54:43.040Z,10.76
2022-11-01T00:55:39.966Z,11.43
2022-11-01T00:56:36.767Z,11.26
2022-11-01T00:57:33.481Z,11.73
2022-11-01T00:58:30.729Z,11.86
2022-11-01T00:59:27.435Z,11.67
2022-11-01T01:00:24.981Z,11.81
2022-11-01T01:01:21.793Z,11.50
2022-11-01T01:02:18.664Z,11.89
2022-11-01T01:03:15.487Z,12.00
2022-11-01T01:04:12.289Z,11.75
2022-11-01T01:05:10.264Z,12.19
2022-11-01T01:06:06.985Z,12.25
2022-11-01T01:07:03.682Z,12.00
2022-11-01T01:08:00.415Z,12.29
2022-11-01T01:09:01.418Z,11.22
2022-11-01T01:09:58.128Z,12.26
2022-11-01T01:10:55.152Z,11.76
2022-11-01T01:11:51.848Z,12.14
2022-11-01T01:12:48.692Z,12.12
2022-11-01T01:13:45.376Z,11.25
2022-11-01T01:14:42.270Z,11.96
2022-11-01T01:15:39.836Z,11.69
2022-11-01T01:16:36.844Z,11.91
2022-11-01T01:17:33.927Z,11.68
2022-11-01T01:18:30.716Z,11.54
2022-11-01T01:19:29.592Z,11.73
2022-11-01T01:20:26.704Z,11.70
2022-11-01T01:21:23.380Z,11.59
2022-11-01T01:22:20.078Z,11.44
2022-11-01T01:23:16.744Z,11.38
2022-11-01T01:24:13.425Z,11.74
2022-11-01T01:25:10.923Z,11.79
2022-11-01T01:26:09.471Z,11.88
2022-11-01T01:27:06.212Z,11.59
2022-11-01T01:28:03.042Z,12.00
2022-11-01T01:29:00.639Z,11.71
2022-11-01T01:29:57.568Z,11.88
2022-11-01T01:30:54.322Z,11.53
2022-11-01T01:31:51.577Z,11.67
2022-11-01T01:32:48.218Z,11.54
2022-11-01T01:33:44.887Z,11.39
2022-11-01T01:34:41.665Z,11.30
2022-11-01T01:35:39.367Z,11.43
2022-11-01T01:36:36.215Z,11.54
2022-11-01T01:37:33.075Z,11.12
2022-11-01T01:38:30.051Z,11.58
2022-11-01T01:39:26.778Z,11.28
2022-11-01T01:40:23.499Z,10.86
2022-11-01T01:41:39.481Z,10.89
2022-11-01T01:42:39.246Z,11.34
2022-11-01T01:43:44.069Z,11.09
2022-11-01T01:45:26.814Z,11.36
2022-11-01T01:46:23.572Z,10.51
2022-11-01T01:47:27.845Z,10.90
2022-11-01T01:48:27.659Z,10.80
2022-11-01T01:49:24.396Z,10.97
2022-11-01T01:50:30.555Z,10.94
2022-11-01T01:51:29.872Z,10.34
2022-11-01T01:52:33.189Z,10.69
2022-11-01T01:53:34.729Z,10.66
2022-11-01T01:54:32.695Z,10.17
2022-11-01T01:55:57.738Z,10.63
2022-11-01T01:56:54.576Z,10.61
2022-11-01T01:57:54.982Z,10.60
2022-11-01T01:59:11.880Z,10.44
2022-11-01T02:00:09.423Z,10.65
2022-11-01T02:01:06.373Z,10.65
2022-11-01T02:02:03.703Z,10.66
2022-11-01T02:03:01.082Z,10.58
2022-11-01T02:03:58.835Z,10.74
2022-11-01T02:05:01.706Z,10.69
2022-11-01T02:06:14.712Z,10.74
2022-11-01T02:07:12.479Z,10.40
2022-11-01T02:08:09.494Z,8.39
2022-11-01T02:09:08.632Z,10.56
2022-11-01T02:10:06.581Z,10.67
2022-11-01T02:11:06.441Z,10.56
2022-11-01T02:12:04.242Z,10.54
2022-11-01T02:13:01.240Z,9.31
2022-11-01T02:13:59.011Z,10.83
2022-11-01T02:14:56.308Z,10.73
2022-11-01T02:16:01.786Z,10.58
2022-11-01T02:17:15.139Z,10.19
2022-11-01T02:18:34.870Z,10.54
2022-11-01T02:19:34.620Z,10.62
2022-11-01T02:20:43.364Z,10.79
2022-11-01T02:21:42.679Z,10.78
2022-11-01T02:23:16.312Z,10.66
2022-11-01T02:24:15.988Z,10.57
2022-11-01T02:25:48.128Z,10.58
2022-11-01T02:26:53.704Z,10.39
2022-11-01T02:27:56.029Z,10.36
2022-11-01T02:28:55.486Z,10.39
2022-11-01T02:30:12.332Z,10.52
2022-11-01T02:31:33.503Z,10.67
2022-11-01T02:32:39.261Z,10.65
2022-11-01T02:33:48.444Z,10.55
2022-11-01T02:35:06.172Z,10.46
2022-11-01T02:36:20.448Z,10.05
2022-11-01T02:37:39.847Z,10.37
2022-11-01T02:39:11.911Z,10.46
2022-11-01T02:40:15.894Z,10.15
2022-11-01T02:41:25.535Z,10.21
2022-11-01T02:42:33.097Z,10.18
2022-11-01T02:43:51.136Z,10.57
2022-11-01T02:45:11.775Z,10.66
2022-11-01T02:46:29.168Z,10.84
2022-11-01T02:47:30.879Z,10.88
2022-11-01T02:48:27.853Z,10.88
2022-11-01T02:49:51.505Z,10.60
2022-11-01T02:50:56.581Z,10.57
2022-11-01T02:51:56.409Z,10.81
2022-11-01T02:52:55.196Z,10.75
2022-11-01T02:53:51.909Z,10.80
2022-11-01T02:55:05.149Z,10.63
2022-11-01T02:56:01.845Z,10.41
2022-11-01T02:57:26.449Z,10.28
2022-11-01T02:58:27.726Z,10.05
2022-11-01T02:59:28.028Z,10.11
2022-11-01T03:00:25.933Z,10.19
2022-11-01T03:01:29.029Z,10.01
2022-11-01T03:02:43.193Z,9.22
2022-11-01T03:03:39.919Z,10.34
2022-11-01T03:04:37.604Z,10.38
2022-11-01T03:05:57.678Z,10.31
2022-11-01T03:07:01.226Z,9.91
2022-11-01T03:08:05.221Z,10.09
2022-11-01T03:09:07.281Z,10.05
2022-11-01T03:10:04.678Z,8.79
2022-11-01T03:11:06.693Z,10.09
2022-11-01T03:12:22.721Z,10.02
2022-11-01T03:13:29.174Z,9.80
2022-11-01T03:15:00.593Z,10.11
2022-11-01T03:16:24.044Z,9.77
2022-11-01T03:17:40.937Z,10.34
2022-11-01T03:18:47.732Z,9.91
2022-11-01T03:20:00.415Z,10.39
2022-11-01T03:21:16.897Z,10.46
2022-11-01T03:22:19.904Z,10.25
2022-11-01T03:23:25.961Z,10.13
2022-11-01T03:24:28.452Z,10.09
2022-11-01T03:25:40.699Z,10.46
2022-11-01T03:26:42.891Z,10.10
2022-11-01T03:27:44.697Z,9.84
2022-11-01T03:28:51.503Z,10.03
2022-11-01T03:29:57.129Z,9.80
2022-11-01T03:31:08.980Z,9.95
2022-11-01T03:32:08.847Z,9.68
2022-11-01T03:33:06.024Z,9.92
2022-11-01T03:34:08.672Z,10.39
2022-11-01T03:35:13.750Z,10.53
2022-11-01T03:36:15.553Z,10.41
2022-11-01T03:37:14.558Z,10.05
2022-11-01T03:38:19.020Z,9.86
2022-11-01T03:39:25.164Z,9.50
2022-11-01T03:40:26.228Z,9.92
2022-11-01T03:41:27.452Z,9.82
2022-11-01T03:42:25.081Z,9.95
2022-11-01T03:43:26.508Z,9.82
2022-11-01T03:44:23.624Z,9.71
2022-11-01T03:45:25.645Z,9.55
2022-11-01T03:46:22.873Z,9.88
2022-11-01T03:47:19.927Z,9.87
2022-11-01T03:48:16.611Z,9.56
2022-11-01T03:49:18.706Z,10.15
2022-11-01T03:50:18.600Z,9.61
2022-11-01T03:51:15.300Z,10.19
2022-11-01T03:52:12.377Z,10.24
2022-11-01T03:53:09.061Z,10.34
2022-11-01T03:54:10.906Z,10.44
2022-11-01T03:55:20.583Z,10.18
2022-11-01T03:56:17.449Z,10.28
2022-11-01T03:57:14.166Z,9.46
2022-11-01T03:58:11.045Z,10.02
2022-11-01T03:59:10.006Z,9.85
2022-11-01T04:00:08.754Z,9.83
2022-11-01T04:01:05.581Z,9.79
2022-11-01T04:02:02.501Z,9.90
2022-11-01T04:03:00.490Z,9.40
2022-11-01T04:03:57.463Z,9.75
2022-11-01T04:04:54.178Z,9.94
2022-11-01T04:05:50.849Z,10.13
2022-11-01T04:06:47.571Z,9.94
2022-11-01T04:07:45.347Z,9.90
2022-11-01T04:08:42.076Z,9.01
2022-11-01T04:09:38.805Z,9.68
2022-11-01T04:10:35.872Z,9.96
2022-11-01T04:11:32.933Z,10.11
2022-11-01T04:12:29.658Z,10.29
2022-11-01T04:13:26.639Z,10.37
2022-11-01T04:14:41.553Z,10.34
2022-11-01T04:15:57.018Z,10.53
2022-11-01T04:17:12.280Z,10.35
2022-11-01T04:18:33.446Z,10.22
2022-11-01T04:19:48.613Z,10.10
2022-11-01T04:20:45.334Z,10.21
2022-11-01T04:21:42.145Z,10.32
2022-11-01T04:22:39.111Z,10.14
2022-11-01T04:23:36.392Z,10.31
2022-11-01T04:24:33.075Z,10.32
2022-11-01T04:25:30.702Z,10.13
2022-11-01T04:26:27.398Z,10.28
2022-11-01T04:27:24.100Z,9.81
2022-11-01T04:28:20.773Z,10.14
2022-11-01T04:29:17.658Z,9.61
2022-11-01T04:30:14.468Z,10.08
2022-11-01T04:31:11.368Z,9.87
2022-11-01T04:32:08.075Z,9.72
2022-11-01T04:33:04.962Z,9.90
2022-11-01T04:34:03.968Z,10.06
2022-11-01T04:35:00.740Z,9.21
2022-11-01T04:35:57.568Z,9.04
2022-11-01T04:36:54.261Z,10.02
2022-11-01T04:37:59.146Z,10.26
2022-11-01T04:38:58.158Z,10.23
2022-11-01T04:39:54.847Z,10.09
2022-11-01T04:40:51.518Z,9.93
2022-11-01T04:41:48.201Z,9.79
2022-11-01T04:42:44.904Z,9.19
2022-11-01T04:43:41.597Z,8.47
2022-11-01T04:44:38.286Z,9.57
2022-11-01T04:45:35.497Z,8.39
2022-11-01T04:46:32.239Z,9.67
2022-11-01T04:47:29.028Z,9.57
2022-11-01T04:48:27.610Z,9.53
2022-11-01T04:49:24.286Z,9.90
2022-11-01T04:50:22.007Z,9.94
2022-11-01T04:51:18.704Z,9.76
2022-11-01T04:52:15.385Z,9.74
2022-11-01T04:53:12.303Z,9.20
2022-11-01T04:54:09.080Z,8.80
2022-11-01T04:55:06.233Z,9.89
2022-11-01T04:56:05.393Z,9.81
2022-11-01T04:57:02.200Z,9.06
2022-11-01T04:57:59.231Z,9.35
2022-11-01T04:58:56.925Z,9.77
2022-11-01T04:59:55.643Z,9.54
2022-11-01T05:00:52.395Z,9.77
2022-11-01T05:01:49.248Z,9.83
2022-11-01T05:02:46.147Z,9.74
2022-11-01T05:03:43.399Z,9.33
2022-11-01T05:04:40.069Z,9.88
2022-11-01T05:05:37.044Z,9.36
2022-11-01T05:06:33.767Z,9.62
2022-11-01T05:07:30.478Z,9.50
2022-11-01T05:08:27.723Z,9.28
2022-11-01T05:09:24.411Z,9.79
2022-11-01T05:10:21.135Z,9.02
2022-11-01T05:11:17.874Z,9.92
2022-11-01T05:12:14.629Z,9.91
2022-11-01T05:13:13.125Z,9.43
2022-11-01T05:14:09.849Z,9.81
2022-11-01T05:15:07.221Z,9.94
2022-11-01T05:16:20.911Z,9.98
2022-11-01T05:17:18.015Z,9.72
2022-11-01T05:18:14.795Z,9.52
2022-11-01T05:19:11.479Z,9.36
2022-11-01T05:20:08.949Z,9.50
2022-11-01T05:21:05.819Z,9.35
2022-11-01T05:22:03.885Z,8.58
2022-11-01T05:23:02.310Z,9.49
2022-11-01T05:23:59.232Z,9.50
2022-11-01T05:24:56.002Z,8.61
2022-11-01T05:25:52.684Z,9.30
2022-11-01T05:26:50.026Z,9.45
2022-11-01T05:27:46.735Z,9.40
2022-11-01T05:28:43.475Z,9.40
2022-11-01T05:29:40.163Z,9.23
2022-11-01T05:30:38.056Z,9.50
2022-11-01T05:31:34.775Z,9.44
2022-11-01T05:32:31.982Z,8.50
2022-11-01T05:33:28.689Z,9.69
2022-11-01T05:34:25.394Z,9.73
2022-11-01T05:35:22.081Z,8.73
2022-11-01T05:36:18.845Z,9.53
2022-11-01T05:37:15.889Z,8.77
2022-11-01T05:38:12.600Z,9.72
2022-11-01T05:39:09.514Z,9.05
2022-11-01T05:40:06.963Z,9.81
2022-11-01T05:41:04.432Z,9.09
2022-11-01T05:42:02.908Z,9.95
2022-11-01T05:43:00.242Z,10.21
2022-11-01T05:43:57.228Z,10.41
2022-11-01T05:44:53.928Z,10.46
2022-11-01T05:45:51.325Z,10.55
2022-11-01T05:46:48.050Z,9.81
2022-11-01T05:47:44.784Z,10.33
2022-11-01T05:48:42.257Z,10.12
2022-11-01T05:49:39.069Z,10.26
2022-11-01T05:50:35.761Z,10.04
2022-11-01T05:51:32.434Z,8.34
2022-11-01T05:52:29.192Z,10.30
2022-11-01T05:53:25.924Z,10.62
2022-11-01T05:54:22.707Z,10.67
2022-11-01T05:55:19.453Z,10.37
2022-11-01T05:56:17.601Z,10.72
2022-11-01T05:57:14.293Z,10.84
2022-11-01T05:58:11.022Z,10.99
2022-11-01T05:59:07.741Z,10.94
2022-11-01T06:00:05.504Z,11.01
2022-11-01T06:01:05.893Z,11.04
2022-11-01T06:02:02.815Z,11.08
2022-11-01T06:03:00.581Z,10.95
2022-11-01T06:04:01.884Z,10.92
2022-11-01T06:05:02.611Z,10.69
2022-11-01T06:06:00.453Z,10.85
2022-11-01T06:06:57.192Z,10.82
2022-11-01T06:07:54.045Z,10.68
2022-11-01T06:08:50.789Z,10.83
2022-11-01T06:09:47.506Z,11.04
2022-11-01T06:10:44.610Z,10.70
2022-11-01T06:11:41.958Z,10.59
2022-11-01T06:12:38.730Z,11.52
2022-11-01T06:13:35.426Z,11.52
2022-11-01T06:14:32.181Z,11.62
2022-11-01T06:15:29.064Z,11.62
2022-11-01T06:16:26.721Z,11.73
2022-11-01T06:17:23.431Z,10.23
2022-11-01T06:18:20.137Z,11.82
2022-11-01T06:19:16.838Z,10.98
2022-11-01T06:20:13.558Z,11.74
2022-11-01T06:21:10.377Z,11.76
2022-11-01T06:22:07.072Z,11.81
2022-11-01T06:23:11.140Z,11.86
2022-11-01T06:24:08.045Z,11.89
2022-11-01T06:25:06.242Z,11.83
2022-11-01T06:26:21.811Z,10.99
2022-11-01T06:27:18.543Z,11.71
2022-11-01T06:28:15.736Z,11.89
2022-11-01T06:29:12.381Z,11.35
2022-11-01T06:30:10.025Z,11.40
2022-11-01T06:31:06.906Z,11.35
2022-11-01T06:32:04.956Z,11.26
2022-11-01T06:33:02.414Z,11.42
2022-11-01T06:33:59.678Z,11.65
2022-11-01T06:34:56.400Z,11.74
2022-11-01T06:35:53.149Z,11.73
2022-11-01T06:36:49.840Z,11.64
2022-11-01T06:37:47.334Z,11.62
2022-11-01T06:38:44.113Z,11.63
2022-11-01T06:39:40.799Z,11.73
2022-11-01T06:40:37.699Z,11.57
2022-11-01T06:41:34.427Z,11.93
2022-11-01T06:42:31.176Z,12.06
2022-11-01T06:43:28.104Z,12.11
2022-11-01T06:44:24.798Z,12.05
2022-11-01T06:45:21.505Z,12.38
2022-11-01T06:46:18.249Z,12.38
2022-11-01T06:47:14.967Z,12.30
2022-11-01T06:48:11.640Z,12.22
2022-11-01T06:49:08.407Z,12.11
2022-11-01T06:50:05.536Z,12.26
2022-11-01T06:51:03.254Z,12.30
2022-11-01T06:52:00.066Z,12.48
2022-11-01T06:52:58.442Z,11.73
2022-11-01T06:53:55.335Z,12.49
2022-11-01T06:54:54.741Z,11.83
2022-11-01T06:55:52.569Z,12.01
2022-11-01T06:56:49.544Z,12.38
2022-11-01T06:57:54.845Z,11.69
2022-11-01T06:58:51.631Z,12.52
2022-11-01T06:59:48.344Z,12.66
2022-11-01T07:00:45.093Z,12.69
2022-11-01T07:01:42.494Z,12.57
2022-11-01T07:02:39.541Z,12.70
2022-11-01T07:03:36.327Z,12.49
2022-11-01T07:04:33.173Z,12.48
2022-11-01T07:05:36.050Z,12.66
2022-11-01T07:06:34.091Z,12.93
2022-11-01T07:07:30.805Z,12.94
2022-11-01T07:08:27.522Z,12.91
2022-11-01T07:09:24.208Z,12.63
2022-11-01T07:10:21.749Z,12.80
2022-11-01T07:11:18.446Z,12.91
2022-11-01T07:12:15.157Z,12.75
2022-11-01T07:13:13.919Z,12.90
2022-11-01T07:14:10.725Z,13.18
2022-11-01T07:15:07.808Z,12.59
2022-11-01T07:16:05.425Z,12.85
2022-11-01T07:17:02.149Z,13.19
2022-11-01T07:18:05.344Z,13.19
2022-11-01T07:19:02.392Z,12.81
2022-11-01T07:19:59.079Z,13.28
2022-11-01T07:20:55.990Z,13.28
2022-11-01T07:21:52.669Z,13.34
2022-11-01T07:22:57.485Z,13.08
2022-11-01T07:23:54.342Z,13.41
2022-11-01T07:24:51.144Z,13.47
2022-11-01T07:25:52.824Z,13.46
2022-11-01T07:26:49.734Z,13.44
2022-11-01T07:27:46.433Z,13.28
2022-11-01T07:28:43.151Z,13.33
2022-11-01T07:29:41.633Z,13.11
2022-11-01T07:30:39.325Z,13.16
2022-11-01T07:31:38.831Z,13.38
2022-11-01T07:32:39.020Z,13.46
2022-11-01T07:33:36.708Z,13.03
2022-11-01T07:34:33.618Z,12.87
2022-11-01T07:35:30.977Z,13.66
2022-11-01T07:36:27.684Z,13.71
2022-11-01T07:37:29.137Z,13.59
2022-11-01T07:38:25.877Z,13.46
2022-11-01T07:39:22.571Z,13.52
2022-11-01T07:40:19.347Z,13.69
2022-11-01T07:41:16.027Z,13.58
2022-11-01T07:42:12.932Z,13.46
2022-11-01T07:43:09.640Z,13.57
2022-11-01T07:44:06.360Z,13.26
2022-11-01T07:45:03.161Z,13.73
2022-11-01T07:46:00.793Z,13.71
2022-11-01T07:46:57.500Z,13.92
2022-11-01T07:48:10.517Z,13.40
2022-11-01T07:49:07.345Z,13.74
2022-11-01T07:50:05.894Z,13.80
2022-11-01T07:51:05.735Z,13.90
2022-11-01T07:52:04.239Z,14.02
2022-11-01T07:53:06.114Z,14.12
2022-11-01T07:54:03.127Z,13.80
2022-11-01T07:54:59.875Z,14.16
2022-11-01T07:55:56.579Z,13.70
2022-11-01T07:56:53.277Z,14.01
2022-11-01T07:57:49.953Z,13.09
2022-11-01T07:58:46.612Z,13.91
2022-11-01T07:59:43.337Z,14.09
2022-11-01T08:00:43.109Z,14.27
2022-11-01T08:01:39.924Z,14.11
2022-11-01T08:02:36.751Z,14.27
2022-11-01T08:03:33.519Z,13.80
2022-11-01T08:04:30.214Z,14.37
2022-11-01T08:05:27.012Z,14.21
2022-11-01T08:06:23.836Z,12.12
2022-11-01T08:07:20.547Z,14.38
2022-11-01T08:08:18.256Z,13.97
2022-11-01T08:09:14.963Z,14.49
2022-11-01T08:10:12.895Z,14.02
2022-11-01T08:11:09.725Z,14.37
2022-11-01T08:12:06.872Z,14.47
2022-11-01T08:13:25.919Z,14.57
2022-11-01T08:14:22.608Z,13.60
2022-11-01T08:15:19.339Z,14.68
2022-11-01T08:16:18.293Z,14.76
2022-11-01T08:17:15.115Z,13.83
2022-11-01T08:18:12.081Z,14.89
2022-11-01T08:19:10.426Z,15.01
2022-11-01T08:20:08.078Z,14.22
2022-11-01T08:21:05.049Z,14.93
2022-11-01T08:22:01.812Z,14.49
2022-11-01T08:22:58.609Z,14.77
2022-11-01T08:23:55.293Z,14.42
2022-11-01T08:24:52.360Z,15.17
2022-11-01T08:25:49.399Z,15.07
2022-11-01T08:26:46.341Z,15.19
2022-11-01T08:27:43.106Z,15.21
2022-11-01T08:28:39.841Z,15.03
2022-11-01T08:29:36.556Z,14.91
2022-11-01T08:30:33.968Z,15.33
2022-11-01T08:31:30.722Z,15.49
2022-11-01T08:32:27.404Z,15.55
2022-11-01T08:33:24.099Z,15.54
2022-11-01T08:34:20.864Z,15.34
2022-11-01T08:35:17.652Z,15.59
2022-11-01T08:36:15.287Z,15.48
2022-11-01T08:37:11.980Z,15.58
2022-11-01T08:38:08.801Z,15.64
2022-11-01T08:39:05.541Z,15.58
2022-11-01T08:40:03.347Z,15.70
2022-11-01T08:41:00.507Z,15.00
2022-11-01T08:41:59.381Z,15.70
2022-11-01T08:42:56.610Z,15.86
2022-11-01T08:43:53.328Z,15.19
2022-11-01T08:44:50.037Z,15.97
2022-11-01T08:45:47.213Z,15.17
2022-11-01T08:46:44.416Z,15.99
2022-11-01T08:47:41.761Z,16.14
2022-11-01T08:48:38.449Z,15.88
2022-11-01T08:49:35.162Z,16.13
2022-11-01T08:50:33.946Z,15.89
2022-11-01T08:51:32.674Z,15.93
2022-11-01T08:52:29.407Z,16.30
2022-11-01T08:53:26.099Z,16.45
2022-11-01T08:54:22.891Z,16.51
2022-11-01T08:55:19.759Z,16.56
2022-11-01T08:56:16.482Z,16.53
2022-11-01T08:57:13.264Z,16.57
2022-11-01T08:58:10.072Z,16.73
2022-11-01T08:59:06.837Z,16.62
2022-11-01T09:00:07.032Z,16.51
2022-11-01T09:01:03.832Z,16.78
2022-11-01T09:02:00.705Z,16.64
2022-11-01T09:02:57.640Z,16.78
2022-11-01T09:04:01.319Z,16.62
2022-11-01T09:04:58.001Z,16.55
2022-11-01T09:05:57.207Z,16.94
2022-11-01T09:06:53.992Z,16.55
2022-11-01T09:07:56.859Z,16.88
2022-11-01T09:08:53.577Z,17.04
2022-11-01T09:09:50.264Z,16.31
2022-11-01T09:10:47.001Z,16.41
2022-11-01T09:11:44.885Z,17.10
2022-11-01T09:12:42.350Z,16.93
2022-11-01T09:13:39.037Z,17.12
2022-11-01T09:14:36.104Z,16.17
2022-11-01T09:15:33.690Z,17.09
2022-11-01T09:16:30.656Z,16.68
2022-11-01T09:17:27.606Z,17.11
2022-11-01T09:18:24.338Z,16.91
2022-11-01T09:19:21.088Z,16.95
2022-11-01T09:20:17.806Z,16.19
2022-11-01T09:21:15.025Z,16.04
2022-11-01T09:22:11.803Z,17.26
2022-11-01T09:23:08.500Z,17.15
2022-11-01T09:24:05.310Z,16.76
2022-11-01T09:25:02.122Z,17.27
2022-11-01T09:26:07.779Z,16.94
2022-11-01T09:27:05.289Z,17.44
2022-11-01T09:28:01.992Z,17.48
2022-11-01T09:28:58.813Z,17.53
2022-11-01T09:29:55.563Z,17.67
2022-11-01T09:31:01.534Z,17.62
2022-11-01T09:32:08.979Z,17.66
2022-11-01T09:33:07.163Z,17.58
2022-11-01T09:34:03.849Z,17.58
2022-11-01T09:35:00.729Z,17.58
2022-11-01T09:35:59.674Z,17.60
2022-11-01T09:36:56.675Z,17.26
2022-11-01T09:38:01.641Z,17.27
2022-11-01T09:38:59.461Z,17.68
2022-11-01T09:39:56.201Z,17.68
2022-11-01T09:41:06.921Z,16.71
2022-11-01T09:42:19.118Z,17.54
2022-11-01T09:43:22.151Z,17.76
2022-11-01T09:44:26.131Z,17.83
2022-11-01T09:45:29.541Z,17.83
2022-11-01T09:46:32.043Z,17.96
2022-11-01T09:47:30.989Z,18.08
2022-11-01T09:48:32.047Z,17.70
2022-11-01T09:49:34.937Z,17.77
2022-11-01T09:50:36.738Z,18.07
2022-11-01T09:51:33.576Z,18.18
2022-11-01T09:52:30.411Z,18.20
2022-11-01T09:53:29.752Z,17.66
2022-11-01T09:54:28.064Z,17.76
2022-11-01T09:55:55.121Z,18.21
2022-11-01T09:57:26.730Z,18.40
2022-11-01T09:58:26.468Z,18.54
2022-11-01T09:59:29.105Z,18.44
2022-11-01T10:00:35.364Z,18.07
2022-11-01T10:02:05.843Z,18.02
2022-11-01T10:03:39.360Z,18.52
2022-11-01T10:05:18.600Z,18.61
2022-11-01T10:06:27.320Z,18.67
2022-11-01T10:07:27.048Z,18.71
2022-11-01T10:08:41.601Z,18.76
2022-11-01T10:10:06.575Z,18.77
2022-11-01T10:11:06.103Z,18.81
2022-11-01T10:12:16.400Z,18.88
2022-11-01T10:13:48.661Z,18.90
2022-11-01T10:15:11.573Z,18.57
2022-11-01T10:16:10.777Z,18.96
2022-11-01T10:17:16.668Z,18.78
2022-11-01T10:18:45.261Z,18.60
2022-11-01T10:19:50.172Z,19.01
2022-11-01T10:20:48.336Z,18.46
2022-11-01T10:21:50.007Z,18.98
2022-11-01T10:22:50.942Z,18.99
2022-11-01T10:23:51.427Z,19.03
2022-11-01T10:24:58.019Z,19.24
2022-11-01T10:25:54.949Z,19.35
2022-11-01T10:27:07.122Z,18.78
2022-11-01T10:28:32.292Z,19.25
2022-11-01T10:29:41.805Z,18.92
2022-11-01T10:30:48.860Z,19.11
2022-11-01T10:31:52.791Z,19.14
2022-11-01T10:32:54.555Z,19.04
2022-11-01T10:34:04.882Z,19.22
2022-11-01T10:35:14.813Z,19.24
2022-11-01T10:36:35.748Z,19.45
2022-11-01T10:37:57.323Z,18.56
2022-11-01T10:40:35.482Z,19.47
2022-11-01T10:41:42.453Z,19.60
2022-11-01T10:42:39.230Z,19.58
2022-11-01T10:43:55.891Z,19.59
2022-11-01T10:44:57.994Z,19.68
2022-11-01T10:45:59.247Z,19.69
2022-11-01T10:46:59.616Z,19.69
2022-11-01T10:47:59.497Z,19.68
2022-11-01T10:49:05.392Z,19.31
2022-11-01T10:50:15.608Z,19.32
2022-11-01T10:51:17.425Z,19.87
2022-11-01T10:52:21.065Z,19.96
2022-11-01T10:53:20.537Z,20.01
2022-11-01T10:54:25.725Z,20.04
2022-11-01T10:55:50.002Z,20.08
2022-11-01T10:56:52.621Z,19.90
2022-11-01T10:58:15.364Z,20.15
2022-11-01T10:59:22.818Z,20.16
2022-11-01T11:00:21.118Z,20.18
2022-11-01T11:01:26.598Z,20.24
2022-11-01T11:02:35.859Z,19.97
2022-11-01T11:03:33.264Z,20.10
2022-11-01T11:04:30.098Z,20.10
2022-11-01T11:05:30.749Z,20.05
2022-11-01T11:06:27.779Z,19.93
2022-11-01T11:07:29.605Z,19.95
2022-11-01T11:08:27.081Z,20.21
2022-11-01T11:09:34.900Z,20.22
2022-11-01T11:10:32.142Z,20.42
2022-11-01T11:11:40.673Z,20.45
2022-11-01T11:12:37.456Z,20.45
2022-11-01T11:13:35.642Z,20.21
2022-11-01T11:14:34.820Z,20.46
2022-11-01T11:15:53.808Z,20.48
2022-11-01T11:16:55.934Z,20.47
2022-11-01T11:17:59.609Z,20.04
2022-11-01T11:19:16.109Z,20.40
2022-11-01T11:20:25.381Z,20.21
2022-11-01T11:21:27.791Z,20.44
2022-11-01T11:22:26.470Z,20.56
2022-11-01T11:23:29.718Z,20.61
2022-11-01T11:24:34.615Z,20.47
2022-11-01T11:25:53.660Z,19.81
2022-11-01T11:26:54.755Z,20.71
2022-11-01T11:27:53.150Z,20.86
2022-11-01T11:28:54.775Z,20.61
2022-11-01T11:29:57.699Z,20.85
2022-11-01T11:30:54.900Z,20.95
2022-11-01T11:31:59.353Z,20.94
2022-11-01T11:32:58.570Z,20.89
2022-11-01T11:34:19.502Z,20.93
2022-11-01T11:35:25.087Z,21.09
2022-11-01T11:36:29.403Z,20.92
2022-11-01T11:37:30.160Z,20.83
2022-11-01T11:38:45.925Z,20.36
2022-11-01T11:40:00.777Z,21.25
2022-11-01T11:40:57.498Z,20.45
2022-11-01T11:41:54.833Z,20.86
2022-11-01T11:42:55.009Z,21.08
2022-11-01T11:43:51.703Z,21.22
2022-11-01T11:44:55.751Z,20.95
2022-11-01T11:46:04.951Z,21.18
2022-11-01T11:47:03.169Z,21.34
2022-11-01T11:48:21.789Z,21.38
2022-11-01T11:49:28.068Z,20.56
2022-11-01T11:50:32.281Z,21.26
2022-11-01T11:51:32.503Z,21.25
2022-11-01T11:52:38.567Z,21.31
2022-11-01T11:53:35.562Z,21.41
2022-11-01T11:54:37.739Z,21.40
2022-11-01T11:55:37.999Z,21.48
2022-11-01T11:56:34.786Z,21.55
2022-11-01T11:57:31.816Z,21.46
2022-11-01T11:58:40.738Z,21.41
2022-11-01T11:59:40.566Z,21.23
2022-11-01T12:00:39.260Z,21.24
2022-11-01T12:01:36.271Z,21.45
2022-11-01T12:02:38.312Z,21.45
2022-11-01T12:03:50.910Z,21.48
2022-11-01T12:04:55.029Z,21.44
2022-11-01T12:06:05.796Z,21.51
2022-11-01T12:07:03.286Z,21.58
2022-11-01T12:08:00.697Z,21.30
2022-11-01T12:08:59.619Z,21.50
2022-11-01T12:10:17.804Z,21.49
2022-11-01T12:11:15.349Z,21.58
2022-11-01T12:12:27.854Z,21.53
2022-11-01T12:13:34.965Z,21.58
2022-11-01T12:14:37.641Z,21.60
2022-11-01T12:15:41.154Z,20.63
2022-11-01T12:16:42.539Z,21.47
2022-11-01T12:17:47.058Z,21.26
2022-11-01T12:19:03.771Z,20.61
2022-11-01T12:20:14.187Z,21.62
2022-11-01T12:21:19.427Z,21.50
2022-11-01T12:22:16.423Z,21.60
2022-11-01T12:23:22.753Z,21.72
2022-11-01T12:24:31.890Z,21.52
2022-11-01T12:25:29.210Z,21.79
2022-11-01T12:26:30.810Z,21.32
2022-11-01T12:27:28.806Z,21.41
2022-11-01T12:28:37.812Z,21.58
2022-11-01T12:29:57.514Z,21.65
2022-11-01T12:31:04.195Z,21.77
2022-11-01T12:32:20.905Z,21.02
2022-11-01T12:33:30.192Z,21.90
2022-11-01T12:34:38.366Z,21.51
2022-11-01T12:35:44.351Z,20.95
2022-11-01T12:36:58.609Z,21.87
2022-11-01T12:38:29.109Z,21.92
2022-11-01T12:39:40.943Z,22.03
2022-11-01T12:40:41.100Z,21.14
2022-11-01T12:41:56.195Z,21.78
2022-11-01T12:43:03.700Z,22.15
2022-11-01T12:44:26.396Z,22.11
2022-11-01T12:45:40.813Z,22.02
2022-11-01T12:47:00.817Z,22.19
2022-11-01T12:48:07.802Z,21.74
2022-11-01T12:49:32.965Z,22.11
2022-11-01T12:50:40.223Z,20.47
2022-11-01T12:51:49.241Z,22.22
2022-11-01T12:53:01.319Z,21.90
2022-11-01T12:54:27.212Z,21.96
2022-11-01T12:55:37.295Z,22.17
2022-11-01T12:56:34.131Z,22.38
2022-11-01T12:57:32.781Z,22.42
2022-11-01T12:58:33.703Z,22.33
2022-11-01T12:59:36.918Z,22.47
2022-11-01T13:00:42.559Z,22.43
2022-11-01T13:02:16.922Z,22.37
2022-11-01T13:03:34.934Z,22.39
2022-11-01T13:04:41.369Z,22.46
2022-11-01T13:05:55.785Z,22.56
2022-11-01T13:07:26.375Z,22.59
2022-11-01T13:08:41.742Z,22.44
2022-11-01T13:09:57.723Z,22.36
2022-11-01T13:11:04.818Z,22.29
2022-11-01T13:12:08.178Z,22.30
2022-11-01T13:13:07.872Z,22.22
2022-11-01T13:14:41.726Z,22.20
2022-11-01T13:15:44.323Z,22.16